createdAt,value
2019-03-16T00:03:51.750Z,3.51
2019-03-16T00:09:46.726Z,3.94
2019-03-16T00:15:41.763Z,3.77
2019-03-16T00:21:36.748Z,3.94
2019-03-16T00:27:31.735Z,3.93
2019-03-16T00:33:26.705Z,3.9
2019-03-16T00:39:21.764Z,4.2
2019-03-16T00:45:16.718Z,3.81
2019-03-16T00:51:11.783Z,4.53
2019-03-16T00:57:06.910Z,3.3
2019-03-16T01:03:01.743Z,4.1
2019-03-16T01:08:56.784Z,3.98
2019-03-16T01:14:51.738Z,3.73
2019-03-16T01:20:46.735Z,3.54
2019-03-16T01:26:41.790Z,4.09
2019-03-16T01:32:40.696Z,4.09
2019-03-16T01:38:31.786Z,3.76
2019-03-16T01:44:26.788Z,3.73
2019-03-16T01:50:21.994Z,3.57
2019-03-16T01:56:16.788Z,2.99
2019-03-16T02:02:12.070Z,3.8
2019-03-16T02:08:07.075Z,3.85
2019-03-16T02:14:01.788Z,3.96
2019-03-16T02:19:56.786Z,3.46
2019-03-16T02:25:51.790Z,3.77
2019-03-16T02:31:46.788Z,3.64
2019-03-16T02:37:41.805Z,3.18
2019-03-16T02:43:36.815Z,3.48
2019-03-16T02:49:31.802Z,3.56
2019-03-16T02:55:26.813Z,3.47
2019-03-16T03:01:21.889Z,3.76
2019-03-16T03:07:16.863Z,3.97
2019-03-16T03:13:13.742Z,3.37
2019-03-16T03:19:07.115Z,4.02
2019-03-16T03:25:01.828Z,3.79
2019-03-16T03:30:56.838Z,3.13
2019-03-16T03:36:51.871Z,3.57
2019-03-16T03:42:46.862Z,3.18
2019-03-16T03:48:41.855Z,4.03
2019-03-16T03:54:36.832Z,3.36
2019-03-16T04:00:31.849Z,3.56
2019-03-16T04:06:26.861Z,3.5
2019-03-16T04:12:21.840Z,3.87
2019-03-16T04:18:16.900Z,3.58
2019-03-16T04:24:11.850Z,3.62
2019-03-16T04:30:07.231Z,3.3
2019-03-16T04:36:01.883Z,3.21
2019-03-16T04:41:56.893Z,3.39
2019-03-16T04:47:51.882Z,3.35
2019-03-16T04:53:46.863Z,3.18
2019-03-16T05:05:36.887Z,2.84
2019-03-16T05:05:36.917Z,2.9
2019-03-16T05:11:31.889Z,3.09
2019-03-16T05:17:26.940Z,3.15
2019-03-16T05:23:21.882Z,3.3
2019-03-16T05:29:16.912Z,3.05
2019-03-16T05:35:12.202Z,3.12
2019-03-16T05:41:07.204Z,3.25
2019-03-16T05:47:01.902Z,3.07
2019-03-16T05:52:56.956Z,2.79
2019-03-16T06:04:46.942Z,3.85
2019-03-16T06:04:47.010Z,3.62
2019-03-16T06:10:41.933Z,3.71
2019-03-16T06:16:36.984Z,3.31
2019-03-16T06:22:31.951Z,2.96
2019-03-16T06:28:26.917Z,3.68
2019-03-16T06:34:21.946Z,3.14
2019-03-16T06:40:16.941Z,3.29
2019-03-16T06:46:12.175Z,2.98
2019-03-16T06:52:07.120Z,2.83
2019-03-16T06:58:01.962Z,3.74
2019-03-16T07:03:56.960Z,5.02
2019-03-16T07:09:52.001Z,5.52
2019-03-16T07:15:46.955Z,4.5
2019-03-16T07:21:41.960Z,6.36
2019-03-16T07:27:36.969Z,8.77
2019-03-16T07:33:31.999Z,6.75
2019-03-16T07:39:26.976Z,5.48
2019-03-16T07:45:22.046Z,6.69
2019-03-16T07:51:17.001Z,5.97
2019-03-16T07:57:12.323Z,6.02
2019-03-16T08:03:06.999Z,5.9
2019-03-16T08:09:02.071Z,5.67
2019-03-16T08:14:57.008Z,7.85
2019-03-16T08:20:51.996Z,7.66
2019-03-16T08:26:47.004Z,5.08
2019-03-16T08:32:41.996Z,4.91
2019-03-16T08:38:37.023Z,5.1
2019-03-16T08:44:32.014Z,5.64
2019-03-16T08:50:27.014Z,5.75
2019-03-16T08:56:22.085Z,5.98
2019-03-16T09:02:17.068Z,5.93
2019-03-16T09:08:12.028Z,4.77
2019-03-16T09:14:07.054Z,5.6
2019-03-16T09:20:02.048Z,6.33
2019-03-16T09:25:57.048Z,5.3
2019-03-16T09:31:52.035Z,4.91
2019-03-16T09:37:47.105Z,2.52
2019-03-16T09:43:42.052Z,3.43
2019-03-16T09:49:37.049Z,3.28
2019-03-16T09:55:35.014Z,3.85
2019-03-16T10:01:27.104Z,3.36
2019-03-16T10:07:22.099Z,3.21
2019-03-16T10:13:17.106Z,3.95
2019-03-16T10:19:12.147Z,2.71
2019-03-16T10:25:07.086Z,3.37
2019-03-16T10:31:02.131Z,2.72
2019-03-16T10:36:57.110Z,2.83
2019-03-16T10:42:52.082Z,3
2019-03-16T10:48:47.173Z,3.25
2019-03-16T10:54:42.096Z,2.79
2019-03-16T11:00:37.139Z,2.71
2019-03-16T11:06:32.097Z,3.04
2019-03-16T11:12:27.132Z,2.75
2019-03-16T11:18:22.105Z,3.06
2019-03-16T11:24:17.473Z,3.52
2019-03-16T11:30:12.170Z,3.31
2019-03-16T11:36:07.131Z,2.59
2019-03-16T11:42:02.115Z,2.84
2019-03-16T11:47:57.185Z,2.73
2019-03-16T11:53:52.137Z,2.73
2019-03-16T11:59:47.119Z,3.6
2019-03-16T12:05:42.132Z,3.36
2019-03-16T12:11:37.139Z,2.92
2019-03-16T12:23:27.164Z,3.42
2019-03-16T12:23:27.197Z,3.06
2019-03-16T12:29:33.338Z,3.2
2019-03-16T12:35:17.207Z,3.11
2019-03-16T12:41:12.182Z,2.99
2019-03-16T12:47:07.178Z,3.32
2019-03-16T12:53:02.215Z,2.48
2019-03-16T12:59:09.469Z,3.02
2019-03-16T13:04:52.191Z,2.46
2019-03-16T13:16:42.208Z,2.36
2019-03-16T13:22:37.301Z,2.61
2019-03-16T13:28:32.187Z,2.94
2019-03-16T13:34:27.196Z,2.47
2019-03-16T13:40:22.247Z,1.96
2019-03-16T13:46:17.275Z,2.24
2019-03-16T13:52:12.234Z,2.33
2019-03-16T13:58:07.215Z,2.36
2019-03-16T14:04:03.147Z,1.72
2019-03-16T14:15:52.262Z,2.03
2019-03-16T14:15:52.290Z,2.15
2019-03-16T14:21:47.249Z,2.43
2019-03-16T14:27:42.216Z,2.1
2019-03-16T14:33:37.233Z,2.46
2019-03-16T14:39:32.254Z,13.49
2019-03-16T14:45:27.242Z,2.35
2019-03-16T14:51:24.658Z,2.77
2019-03-16T14:57:17.563Z,3.15
2019-03-16T15:03:12.560Z,2.93
2019-03-16T15:09:07.281Z,8.26
2019-03-16T15:15:02.272Z,3.37
2019-03-16T15:20:57.286Z,3.9
2019-03-16T15:26:52.287Z,3.38
2019-03-16T15:32:47.328Z,4.27
2019-03-16T15:38:42.307Z,3.25
2019-03-16T15:44:38.177Z,2.57
2019-03-16T15:50:32.290Z,3.1
2019-03-16T15:56:27.748Z,2.79
2019-03-16T16:02:22.354Z,2.59
2019-03-16T16:08:19.315Z,3.01
2019-03-16T16:14:12.282Z,3.91
2019-03-16T16:20:07.345Z,3.3
2019-03-16T16:26:02.311Z,3.7
2019-03-16T16:31:57.308Z,3.36
2019-03-16T16:37:52.304Z,3.27
2019-03-16T16:43:47.315Z,3.2
2019-03-16T16:49:42.336Z,3.66
2019-03-16T16:55:37.336Z,2.88
2019-03-16T17:01:32.337Z,2.95
2019-03-16T17:07:27.321Z,3.47
2019-03-16T17:13:22.321Z,3.02
2019-03-16T17:19:17.347Z,3.91
2019-03-16T17:25:12.632Z,2.98
2019-03-16T17:31:07.330Z,3.54
2019-03-16T17:37:02.359Z,3
2019-03-16T17:42:57.375Z,3.05
2019-03-16T17:54:47.385Z,3.08
2019-03-16T17:54:47.408Z,3.55
2019-03-16T18:00:42.382Z,3.76
2019-03-16T18:06:37.400Z,4.36
2019-03-16T18:12:32.365Z,3.78
2019-03-16T18:18:27.365Z,3.93
2019-03-16T18:24:22.363Z,4.14
2019-03-16T18:30:17.679Z,4.35
2019-03-16T18:36:12.703Z,4.24
2019-03-16T18:42:07.386Z,4.04
2019-03-16T18:48:02.392Z,4.27
2019-03-16T18:53:57.395Z,4.95
2019-03-16T18:59:52.409Z,6.06
2019-03-16T19:05:49.426Z,6.69
2019-03-16T19:11:42.427Z,5.77
2019-03-16T19:17:37.462Z,5.69
2019-03-16T19:23:32.452Z,5.99
2019-03-16T19:29:27.444Z,5.54
2019-03-16T19:35:22.492Z,5.44
2019-03-16T19:41:17.738Z,4.53
2019-03-16T19:47:12.720Z,5.08
2019-03-16T19:53:07.437Z,5
2019-03-16T19:59:02.434Z,5.47
2019-03-16T20:04:57.439Z,4.99
2019-03-16T20:10:52.476Z,5.79
2019-03-16T20:16:47.466Z,5.04
2019-03-16T20:22:42.473Z,4.78
2019-03-16T20:28:37.456Z,7.06
2019-03-16T20:34:32.584Z,6.53
2019-03-16T20:40:27.444Z,6.02
2019-03-16T20:46:22.474Z,5.73
2019-03-16T20:52:17.484Z,5.68
2019-03-16T20:58:12.773Z,5.67
2019-03-16T21:04:07.462Z,5.52
2019-03-16T21:10:02.496Z,5.59
2019-03-16T21:15:57.490Z,5.96
2019-03-16T21:21:52.493Z,5.65
2019-03-16T21:27:47.629Z,6.06
2019-03-16T21:33:42.477Z,5.89
2019-03-16T21:39:37.495Z,5.69
2019-03-16T21:45:32.517Z,7
2019-03-16T21:51:27.536Z,6.59
2019-03-16T21:57:22.564Z,6.77
2019-03-16T22:03:17.580Z,5.89
2019-03-16T22:09:12.845Z,7.15
2019-03-16T22:15:07.539Z,6.62
2019-03-16T22:21:02.561Z,8.29
2019-03-16T22:26:57.535Z,6.69
2019-03-16T22:32:52.574Z,6.96
2019-03-16T22:38:47.540Z,7.95
2019-03-16T22:44:42.551Z,7.43
2019-03-16T22:50:37.551Z,13.99
2019-03-16T22:56:32.546Z,12.54
2019-03-16T23:02:27.571Z,7.8
2019-03-16T23:08:22.619Z,6.78
2019-03-16T23:20:12.754Z,6.17
2019-03-16T23:20:12.756Z,6.17
2019-03-16T23:26:07.578Z,7.19
2019-03-16T23:32:02.597Z,6.72
2019-03-16T23:37:57.586Z,6.66
2019-03-16T23:43:52.571Z,7.73
2019-03-16T23:49:47.583Z,6.21
2019-03-16T23:55:42.638Z,7.55
